Observations for Trim Market St
| Time | AQI | Temp °C | Hum % | Pres Pa | CO μg/m³ | H₂S μg/m³ | NO μg/m³ | NO₂ μg/m³ | O₃ μg/m³ | SO₂ μg/m³ | PM1 μg/m³ | PM2.5 μg/m³ | PM10 μg/m³ |
|---|---|---|---|---|---|---|---|---|---|---|---|---|---|
| Monday 17 August 2026 | |||||||||||||
| 19:13 | 2 | 21.1 | 69 | 33,750 | 0 | 13.51 | 1.07 | 32.8 | 69.66 | 0 | 2.85 | 5.04 | 7.53 |
| 19:12 | 2 | 21.1 | 69 | 35,384 | 0 | 12.2 | 1.09 | 16.89 | 77 | 0 | 1.43 | 3.59 | 5.63 |
| 19:11 | 2 | 21.2 | 69 | 36,879 | 0 | 14.68 | 1.08 | 49.21 | 62.44 | 0 | 2.14 | 4.09 | 6.9 |
| 19:10 | 2 | 21.3 | 68 | 38,840 | 0 | 12.51 | 1.06 | 29.86 | 68.63 | 0 | 1.43 | 3.13 | 6.26 |
| 19:09 | 2 | 21.3 | 68 | 40,652 | 0 | 15.13 | 1.07 | 37.83 | 64.87 | 0 | 2.14 | 4.12 | 6.89 |
| 19:08 | 2 | 21.4 | 68 | 42,715 | 0 | 15.39 | 1.06 | 30.19 | 74.34 | 0 | 1.43 | 2.67 | 4.33 |
| 19:07 | 2 | 21.4 | 68 | 44,720 | 0 | 14.55 | 1.06 | 33.44 | 72.84 | 0 | 2.85 | 4.15 | 6.25 |
| 19:06 | 2 | 21.5 | 67 | 46,689 | 0 | 13.7 | 1.05 | 19.28 | 73.9 | 0 | 2.14 | 3.68 | 5.6 |
| 19:05 | 2 | 21.6 | 67 | 48,667 | 0 | 17.37 | 1.05 | 32.96 | 80.58 | 0 | 2.14 | 4.19 | 6.24 |
| 19:04 | 2 | 21.6 | 66 | 50,776 | 0 | 12.7 | 1.06 | 22.13 | 75.49 | 0 | 2.85 | 4.7 | 7.53 |
| 18:59 | 2 | 22 | 64 | 55,239 | 0 | 16.3 | 1.06 | 27.03 | 79.64 | 0 | 1.43 | 3.82 | 5.55 |
| 18:58 | 2 | 22.2 | 64 | 55,731 | 0.68 | 18.33 | 1.05 | 37.55 | 71.75 | 0 | 13.54 | 15.22 | 20.8 |
| 18:53 | 2 | 22.7 | 62 | 57,005 | 0 | 11.91 | 1.02 | 22.47 | 77.42 | 0 | 0.71 | 2.45 | 3.47 |
| 18:50 | 2 | 23 | 60 | 57,265 | 0 | 10 | 1.07 | 22.07 | 78.99 | 0 | 1.43 | 3.02 | 4.1 |
| 18:47 | 2 | 23.3 | 58 | 57,273 | 0 | 12.12 | 1.02 | 25.75 | 85.01 | 0 | 0.71 | 3.09 | 4.05 |
| 18:46 | 2 | 23.4 | 58 | 57,197 | 0 | 10.53 | 1.02 | 21.84 | 87.23 | 0 | 1.43 | 4.63 | 6.13 |
| 18:45 | 2 | 23.5 | 57 | 57,070 | 0 | 6.29 | 1.01 | 23.69 | 90.48 | 0 | 0.71 | 3.14 | 4.72 |
| 18:43 | 2 | 23.5 | 57 | 56,709 | 0 | 0.4 | 1.06 | 14.46 | 84.6 | 0 | 0 | 2.15 | 2.6 |
| 18:42 | 2 | 23.5 | 57 | 56,600 | 0 | 0 | 1.12 | 13.18 | 82.68 | 0 | 0.71 | 2.67 | 4 |
| 18:39 | 2 | 23.6 | 56 | 56,391 | 0 | 0 | 1.29 | 13.61 | 85.22 | 0 | 1.43 | 4.2 | 5.41 |